KVNYKPRB

Guest
Details From KVNY - Van Nuys
To KPRB - PASO ROBLES MUNI
Flight Number -
Tags generated
Created
Modified
Stats Distance 137 nm / 254 km
Max Altitude 14,900 ft / 4,542 m
Waypoints 3
Social Downloads 0
Likes 0
Share

Download

Looking for another format? Having issues loading an existing format? Contact us
Advertisement - Login to hide

Notes

Basic altitude profile: - Ascent Rate: 2500ft/min - Ascent Speed: 109kts - Cruise Altitude: 35000ft - Cruise Speed: 109kts - Descent Rate: 1500ft/min - Descent Speed: 109kts Options: - Use NATs: yes - Use PACOTS: yes - Use low airways: yes - Use high airways: no

Route

KVNY REYES KPRB

ID Type Via Altitude (ft/m) Position (lat/lon) Dist (leg/tot) Name
O KVNY APT - 0 / 0 34.21072 / -118.48984 - / 0 nm Van Nuys
REYES FIX - 14,900 / 4,542 34.65873 / -119.13432 41 / 41 nm
O KPRB APT - 0 / 0 35.67281 / -120.62656 95 / 137 nm PASO ROBLES MUNI

Altitude Profile

Advertisement - Login to hide

KVNY

Details ICAO KVNY (VNY)
Name Van Nuys Airport
Region United States
Timezone America/Los_Angeles (UTC-7.0)
Stats Elevation 802 ft / 244 m (AMSL)
Location 34.210700° -118.490000°
Runways 2
Magnetic Variation 11.775° E

METAR

KVNY 081251Z AUTO 14003KT 9SM OVC014 15/11 A2991 RMK AO2 SLP123 T01500106

Decode

TAF

KVNY 081125Z 0812/0912 VRB03KT P6SM OVC015 FM081600 VRB03KT P6SM SKC FM081900 13010KT P6SM SKC FM090600 VRB03KT P6SM SKC

Decode

Departure Runways

ID Width Length Bearing (true/mag) Surface Threshold Overrun Markings Lighting
16L 75 ft / 23 m 4,026 ft / 1,227 m 175.53° / 163.76° ASPHALT 1,437 ft / 438 m 0 ft / 0 m VISUAL EDGE THRESHOLD
16R 151 ft / 46 m 8,027 ft / 2,447 m 175.52° / 163.75° ASPHALT 1,430 ft / 436 m 151 ft / 46 m PREC-APP EDGE THRESHOLD MALSR
34L 151 ft / 46 m 8,027 ft / 2,447 m 355.52° / 343.75° ASPHALT 0 ft / 0 m 174 ft / 53 m PREC-APP EDGE THRESHOLD
34R 75 ft / 23 m 4,026 ft / 1,227 m 355.53° / 343.76° ASPHALT 0 ft / 0 m 0 ft / 0 m VISUAL EDGE THRESHOLD

KPRB

Details ICAO KPRB (PRB)
Name Paso Robles Muni
Region United States
Timezone America/Los_Angeles (UTC-7.0)
Stats Elevation 839 ft / 256 m (AMSL)
Location 35.672800° -120.627000°
Runways 2
Magnetic Variation 12.458° E

METAR

KPRB 081253Z AUTO 09003KT 10SM CLR 05/02 A2999 RMK AO2 SLP153 T00500022

Decode

TAF

KPRB 081125Z 0812/0912 VRB03KT P6SM SKC FM081800 31006KT P6SM SKC FM090000 31012KT P6SM SKC FM090900 VRB03KT P6SM SKC

Decode

Destination Runways

ID Width Length Bearing (true/mag) Surface Threshold Overrun Markings Lighting
01 150 ft / 46 m 6,017 ft / 1,834 m 28.53° / 16.08° ASPHALT 0 ft / 0 m 0 ft / 0 m APP EDGE THRESHOLD
13 100 ft / 30 m 4,706 ft / 1,434 m 143.78° / 131.32° ASPHALT 0 ft / 0 m 0 ft / 0 m APP EDGE THRESHOLD
19 150 ft / 46 m 6,017 ft / 1,834 m 208.54° / 196.08° ASPHALT 0 ft / 0 m 0 ft / 0 m APP EDGE THRESHOLD REIL-OMNI
31 100 ft / 30 m 4,706 ft / 1,434 m 323.79° / 311.33° ASPHALT 0 ft / 0 m 0 ft / 0 m APP EDGE THRESHOLD

Popular Alternatives